createdAt,value
2017-09-22T00:00:23.166Z,8.24
2017-09-22T00:01:33.440Z,8.27
2017-09-22T00:02:43.714Z,8.28
2017-09-22T00:03:53.988Z,8.26
2017-09-22T00:05:03.610Z,8.27
2017-09-22T00:06:13.557Z,8.36
2017-09-22T00:07:23.507Z,8.32
2017-09-22T00:08:33.457Z,8.32
2017-09-22T00:09:43.409Z,8.32
2017-09-22T00:10:53.359Z,8.35
2017-09-22T00:12:03.629Z,8.27
2017-09-22T00:13:13.575Z,8.35
2017-09-22T00:14:23.212Z,8.34
2017-09-22T00:15:33.160Z,8.36
2017-09-22T00:16:43.430Z,8.41
2017-09-22T00:17:53.707Z,8.39
2017-09-22T00:19:03.982Z,8.35
2017-09-22T00:20:14.259Z,8.38
2017-09-22T00:21:23.889Z,8.42
2017-09-22T00:22:33.837Z,8.32
2017-09-22T00:23:43.476Z,8.35
2017-09-22T00:24:53.750Z,8.32
2017-09-22T00:26:03.377Z,8.39
2017-09-22T00:27:13.329Z,8.39
2017-09-22T00:28:23.281Z,8.41
2017-09-22T00:29:33.233Z,8.31
2017-09-22T00:30:43.504Z,8.41
2017-09-22T00:31:53.488Z,8.39
2017-09-22T00:33:03.117Z,8.39
2017-09-22T00:34:13.065Z,8.36
2017-09-22T00:35:22.693Z,8.35
2017-09-22T00:36:32.000Z,8.38
2017-09-22T00:37:41.627Z,8.36
2017-09-22T00:38:51.582Z,8.38
2017-09-22T00:40:01.851Z,8.35
2017-09-22T00:41:11.486Z,8.39
2017-09-22T00:42:21.762Z,8.34
2017-09-22T00:43:32.028Z,8.41
2017-09-22T00:44:41.977Z,8.36
2017-09-22T00:45:51.924Z,8.39
2017-09-22T00:47:02.190Z,8.32
2017-09-22T00:48:12.459Z,8.39
2017-09-22T00:49:22.727Z,8.31
2017-09-22T00:50:32.684Z,8.32
2017-09-22T00:51:42.317Z,8.39
2017-09-22T00:52:52.589Z,8.32
2017-09-22T00:54:02.855Z,8.36
2017-09-22T00:55:12.807Z,8.35
2017-09-22T00:56:23.077Z,8.34
2017-09-22T00:57:33.032Z,8.36
2017-09-22T00:58:43.303Z,8.42
2017-09-22T00:59:53.576Z,8.38
2017-09-22T01:01:03.855Z,8.41
2017-09-22T01:02:13.483Z,8.39
2017-09-22T01:03:23.439Z,8.44
2017-09-22T01:04:33.710Z,8.42
2017-09-22T01:05:43.988Z,8.35
2017-09-22T01:06:54.259Z,8.39
2017-09-22T01:08:03.888Z,8.44
2017-09-22T01:09:13.521Z,8.42
2017-09-22T01:10:23.791Z,8.42
2017-09-22T01:11:33.740Z,8.56
2017-09-22T01:12:44.018Z,8.46
2017-09-22T01:13:53.987Z,8.45
2017-09-22T01:15:04.259Z,8.42
2017-09-22T01:16:14.210Z,8.41
2017-09-22T01:17:24.481Z,8.39
2017-09-22T01:18:33.791Z,8.42
2017-09-22T01:19:44.063Z,8.53
2017-09-22T01:20:54.347Z,8.45
2017-09-22T01:22:04.622Z,8.5
2017-09-22T01:23:14.258Z,8.54
2017-09-22T01:24:24.209Z,8.54
2017-09-22T01:25:34.157Z,8.54
2017-09-22T01:26:44.437Z,8.61
2017-09-22T01:27:54.712Z,8.63
2017-09-22T01:29:04.342Z,8.54
2017-09-22T01:30:14.298Z,8.5
2017-09-22T01:31:24.249Z,8.54
2017-09-22T01:32:34.529Z,8.45
2017-09-22T01:33:43.835Z,8.45
2017-09-22T01:34:53.784Z,8.45
2017-09-22T01:36:04.058Z,8.42
2017-09-22T01:37:14.336Z,8.49
2017-09-22T01:38:24.345Z,8.49
2017-09-22T01:39:33.972Z,8.45
2017-09-22T01:40:43.605Z,8.49
2017-09-22T01:41:53.555Z,8.44
2017-09-22T01:43:03.831Z,8.45
2017-09-22T01:44:13.462Z,8.42
2017-09-22T01:45:23.412Z,8.44
2017-09-22T01:46:33.681Z,8.41
2017-09-22T01:47:43.956Z,8.49
2017-09-22T01:48:53.583Z,8.44
2017-09-22T01:50:03.546Z,8.49
2017-09-22T01:51:13.181Z,8.44
2017-09-22T01:52:23.131Z,8.46
2017-09-22T01:53:33.411Z,8.42
2017-09-22T01:54:43.044Z,8.41
2017-09-22T01:55:53.317Z,8.41
2017-09-22T01:57:03.278Z,8.36
2017-09-22T01:58:13.231Z,8.41
2017-09-22T01:59:23.504Z,8.36
2017-09-22T02:00:33.771Z,8.35
2017-09-22T02:01:43.401Z,8.36
2017-09-22T02:02:53.037Z,8.34
2017-09-22T02:04:03.309Z,8.41
2017-09-22T02:05:12.936Z,8.36
2017-09-22T02:06:22.885Z,8.36
2017-09-22T02:07:33.156Z,8.36
2017-09-22T02:08:43.429Z,8.32
2017-09-22T02:09:53.698Z,8.32
2017-09-22T02:11:03.645Z,8.31
2017-09-22T02:12:13.599Z,8.44
2017-09-22T02:13:23.873Z,8.42
2017-09-22T02:14:34.163Z,8.42
2017-09-22T02:15:43.791Z,8.38
2017-09-22T02:16:54.068Z,8.46
2017-09-22T02:18:03.379Z,8.42
2017-09-22T02:19:13.649Z,8.49
2017-09-22T02:20:23.924Z,8.44
2017-09-22T02:21:34.199Z,8.45
2017-09-22T02:22:44.158Z,8.42
2017-09-22T02:23:54.140Z,8.45
2017-09-22T02:25:04.410Z,8.45
2017-09-22T02:26:14.367Z,8.44
2017-09-22T02:27:24.637Z,8.5
2017-09-22T02:28:34.595Z,8.5
2017-09-22T02:29:44.866Z,8.45
2017-09-22T02:30:55.147Z,8.44
2017-09-22T02:32:05.114Z,8.41
2017-09-22T02:33:14.749Z,8.54
2017-09-22T02:34:24.719Z,8.41
2017-09-22T02:35:34.991Z,8.45
2017-09-22T02:36:44.941Z,8.38
2017-09-22T02:37:55.228Z,8.42
2017-09-22T02:39:05.188Z,8.41
2017-09-22T02:40:15.467Z,8.38
2017-09-22T02:41:25.421Z,8.41
2017-09-22T02:42:35.699Z,8.49
2017-09-22T02:43:45.647Z,8.39
2017-09-22T02:44:55.922Z,8.42
2017-09-22T02:46:06.223Z,8.41
2017-09-22T02:47:16.178Z,8.41
2017-09-22T02:48:26.463Z,8.41
2017-09-22T02:49:36.767Z,8.36
2017-09-22T02:50:47.047Z,8.44
2017-09-22T02:51:57.323Z,8.39
2017-09-22T02:53:07.281Z,8.36
2017-09-22T02:54:17.558Z,8.35
2017-09-22T02:55:27.858Z,8.35
2017-09-22T02:56:37.808Z,8.32
2017-09-22T02:57:47.763Z,8.38
2017-09-22T02:58:57.726Z,8.34
2017-09-22T03:00:07.677Z,8.39
2017-09-22T03:01:17.624Z,8.32
2017-09-22T03:02:27.909Z,8.36
2017-09-22T03:03:38.180Z,8.36
2017-09-22T03:04:47.166Z,8.42
2017-09-22T03:05:57.116Z,8.39
2017-09-22T03:07:06.423Z,8.34
2017-09-22T03:08:15.736Z,8.39
2017-09-22T03:09:26.021Z,8.36
2017-09-22T03:10:36.291Z,8.36
2017-09-22T03:11:45.926Z,8.36
2017-09-22T03:12:55.875Z,8.38
2017-09-22T03:14:05.819Z,8.36
2017-09-22T03:15:16.093Z,8.38
2017-09-22T03:16:26.369Z,8.35
2017-09-22T03:17:36.321Z,8.39
2017-09-22T03:18:46.311Z,8.34
2017-09-22T03:19:56.257Z,8.36
2017-09-22T03:21:06.212Z,8.41
2017-09-22T03:22:16.484Z,8.42
2017-09-22T03:23:26.751Z,8.39
2017-09-22T03:24:37.025Z,8.41
2017-09-22T03:25:46.976Z,8.41
2017-09-22T03:26:56.611Z,8.42
2017-09-22T03:28:05.919Z,8.46
2017-09-22T03:29:16.188Z,8.45
2017-09-22T03:30:26.465Z,8.45
2017-09-22T03:31:36.413Z,8.45
2017-09-22T03:32:46.376Z,8.45
2017-09-22T03:33:56.646Z,8.42
2017-09-22T03:35:06.602Z,8.45
2017-09-22T03:36:16.225Z,8.5
2017-09-22T03:37:26.495Z,8.5
2017-09-22T03:38:36.774Z,8.56
2017-09-22T03:39:46.399Z,8.69
2017-09-22T03:40:56.679Z,8.6
2017-09-22T03:42:06.627Z,8.56
2017-09-22T03:43:15.933Z,8.5
2017-09-22T03:44:26.204Z,8.64
2017-09-22T03:45:36.483Z,8.63
2017-09-22T03:46:46.432Z,8.69
2017-09-22T03:47:56.381Z,8.64
2017-09-22T03:49:06.339Z,8.66
2017-09-22T03:50:16.613Z,8.69
2017-09-22T03:51:26.563Z,8.71
2017-09-22T03:52:36.840Z,8.72
2017-09-22T03:53:46.794Z,8.72
2017-09-22T03:54:57.066Z,8.74
2017-09-22T03:56:07.361Z,8.79
2017-09-22T03:57:17.631Z,8.71
2017-09-22T03:58:27.906Z,8.79
2017-09-22T03:59:38.234Z,8.78
2017-09-22T04:00:48.505Z,8.74
2017-09-22T04:01:58.462Z,8.78
2017-09-22T04:03:08.739Z,8.75
2017-09-22T04:04:18.692Z,8.78
2017-09-22T04:05:28.993Z,8.82
2017-09-22T04:06:38.944Z,8.79
2017-09-22T04:07:48.895Z,8.87
2017-09-22T04:08:58.847Z,8.9
2017-09-22T04:10:08.802Z,8.89
2017-09-22T04:11:18.437Z,8.93
2017-09-22T04:12:28.387Z,8.89
2017-09-22T04:13:38.020Z,8.96
2017-09-22T04:14:47.985Z,8.9
2017-09-22T04:15:57.932Z,8.97
2017-09-22T04:17:07.881Z,8.92
2017-09-22T04:18:17.825Z,9.02
2017-09-22T04:19:28.104Z,9.03
2017-09-22T04:20:38.377Z,9
2017-09-22T04:21:48.347Z,9.05
2017-09-22T04:22:57.974Z,9.08
2017-09-22T04:24:07.610Z,9.03
2017-09-22T04:25:17.554Z,8.99
2017-09-22T04:26:27.189Z,9.12
2017-09-22T04:27:37.464Z,9.12
2017-09-22T04:28:47.419Z,9.12
2017-09-22T04:29:57.692Z,9.11
2017-09-22T04:31:07.326Z,9.21
2017-09-22T04:32:16.633Z,9.12
2017-09-22T04:33:26.903Z,9.21
2017-09-22T04:34:36.857Z,9.12
2017-09-22T04:35:46.814Z,9.16
2017-09-22T04:36:56.759Z,9.18
2017-09-22T04:38:06.389Z,9.21
2017-09-22T04:39:16.026Z,9.27
2017-09-22T04:40:26.309Z,9.16
2017-09-22T04:41:36.332Z,9.18
2017-09-22T04:42:46.292Z,9.18
2017-09-22T04:43:56.560Z,9.15
2017-09-22T04:45:06.514Z,9.15
2017-09-22T04:46:16.146Z,9.21
2017-09-22T04:47:26.454Z,9.24
2017-09-22T04:48:36.774Z,9.18
2017-09-22T04:49:47.049Z,9.26
2017-09-22T04:50:57.315Z,9.29
2017-09-22T04:52:07.189Z,9.27
2017-09-22T04:53:16.817Z,9.26
2017-09-22T04:54:26.446Z,9.3
2017-09-22T04:55:36.748Z,9.3
2017-09-22T04:56:47.033Z,9.33
2017-09-22T04:57:56.987Z,9.3
2017-09-22T04:59:05.973Z,9.29
2017-09-22T05:00:15.923Z,9.29
2017-09-22T05:01:25.557Z,9.24
2017-09-22T05:02:35.835Z,9.22
2017-09-22T05:03:46.108Z,9.34
2017-09-22T05:04:56.383Z,9.22
2017-09-22T05:06:06.664Z,9.24
2017-09-22T05:07:16.627Z,9.26
2017-09-22T05:08:26.580Z,9.29
2017-09-22T05:09:36.855Z,9.13
2017-09-22T05:10:46.816Z,9.15
2017-09-22T05:11:56.808Z,9.12
2017-09-22T05:13:06.805Z,9.19
2017-09-22T05:14:16.762Z,9.05
2017-09-22T05:15:26.716Z,9.11
2017-09-22T05:16:36.999Z,9.16
2017-09-22T05:17:46.952Z,9.19
2017-09-22T05:18:57.228Z,9.13
2017-09-22T05:20:06.865Z,9.13
2017-09-22T05:21:17.137Z,9.18
2017-09-22T05:22:27.410Z,9.15
2017-09-22T05:23:37.680Z,9.12
2017-09-22T05:24:47.629Z,9.13
2017-09-22T05:25:57.584Z,9.13
2017-09-22T05:27:07.858Z,9.16
2017-09-22T05:28:18.128Z,9.16
2017-09-22T05:29:28.400Z,9.18
2017-09-22T05:30:38.350Z,9.13
2017-09-22T05:31:48.628Z,9.24
2017-09-22T05:32:59.152Z,9.15
2017-09-22T05:34:08.788Z,9.13
2017-09-22T05:35:19.062Z,9.15
2017-09-22T05:36:29.022Z,9.15
2017-09-22T05:37:39.307Z,9.26
2017-09-22T05:38:49.584Z,9.12
2017-09-22T05:39:59.858Z,9.13
2017-09-22T05:41:09.167Z,9.13
2017-09-22T05:42:19.443Z,9.19
2017-09-22T05:43:29.400Z,9.18
2017-09-22T05:44:39.682Z,9.22
2017-09-22T05:45:49.640Z,9.3
2017-09-22T05:46:59.918Z,9.3
2017-09-22T05:48:09.869Z,9.29
2017-09-22T05:49:19.818Z,9.3
2017-09-22T05:50:30.099Z,9.3
2017-09-22T05:51:39.727Z,9.27
2017-09-22T05:52:49.681Z,9.22
2017-09-22T05:53:59.952Z,9.29
2017-09-22T05:55:09.909Z,9.3
2017-09-22T05:56:20.185Z,9.3
2017-09-22T05:57:30.463Z,9.37
2017-09-22T05:58:40.095Z,9.34
2017-09-22T05:59:50.379Z,9.42
2017-09-22T06:01:00.329Z,9.44
2017-09-22T06:02:10.607Z,9.42
2017-09-22T06:03:20.572Z,9.39
2017-09-22T06:04:29.885Z,9.37
2017-09-22T06:05:39.838Z,9.44
2017-09-22T06:06:49.788Z,9.47
2017-09-22T06:08:00.062Z,9.51
2017-09-22T06:09:10.337Z,9.45
2017-09-22T06:10:20.618Z,9.48
2017-09-22T06:11:30.896Z,9.47
2017-09-22T06:12:41.180Z,9.54
2017-09-22T06:13:51.455Z,9.54
2017-09-22T06:15:01.736Z,9.52
2017-09-22T06:16:11.364Z,9.56
2017-09-22T06:17:21.321Z,9.58
2017-09-22T06:18:31.594Z,9.62
2017-09-22T06:19:41.877Z,9.58
2017-09-22T06:20:52.149Z,9.54
2017-09-22T06:22:02.419Z,9.55
2017-09-22T06:23:12.375Z,9.64
2017-09-22T06:24:21.684Z,9.67
2017-09-22T06:25:31.318Z,9.64
2017-09-22T06:26:40.946Z,9.64
2017-09-22T06:27:50.900Z,9.66
2017-09-22T06:29:01.176Z,9.64
2017-09-22T06:30:11.458Z,9.59
2017-09-22T06:31:21.731Z,9.73
2017-09-22T06:32:32.009Z,9.76
2017-09-22T06:33:41.647Z,9.69
2017-09-22T06:34:51.604Z,9.74
2017-09-22T06:36:01.879Z,9.77
2017-09-22T06:37:11.503Z,9.77
2017-09-22T06:38:21.451Z,9.8
2017-09-22T06:39:31.725Z,9.82
2017-09-22T06:40:41.680Z,9.77
2017-09-22T06:41:51.962Z,9.81
2017-09-22T06:43:01.600Z,9.8
2017-09-22T06:44:11.874Z,9.85
2017-09-22T06:45:22.195Z,9.85
2017-09-22T06:46:31.828Z,9.84
2017-09-22T06:47:42.103Z,9.88
2017-09-22T06:48:52.381Z,9.91
2017-09-22T06:50:02.651Z,9.9
2017-09-22T06:51:12.285Z,9.91
2017-09-22T06:52:21.919Z,9.9
2017-09-22T06:53:32.195Z,9.85
2017-09-22T06:54:41.832Z,9.88
2017-09-22T06:55:51.783Z,9.97
2017-09-22T06:57:01.770Z,10.03
2017-09-22T06:58:12.044Z,10.02
2017-09-22T06:59:21.990Z,9.97
2017-09-22T07:00:31.942Z,10.02
2017-09-22T07:01:41.581Z,10.06
2017-09-22T07:02:51.539Z,10.06
2017-09-22T07:04:01.491Z,10.18
2017-09-22T07:05:11.778Z,10.2
2017-09-22T07:06:21.729Z,10.21
2017-09-22T07:07:32.008Z,10.23
2017-09-22T07:08:41.966Z,10.28
2017-09-22T07:09:51.916Z,10.25
2017-09-22T07:11:02.193Z,10.3
2017-09-22T07:12:11.826Z,10.39
2017-09-22T07:13:21.781Z,10.48
2017-09-22T07:14:31.743Z,10.48
2017-09-22T07:15:41.378Z,10.46
2017-09-22T07:16:51.656Z,10.43
2017-09-22T07:18:01.945Z,10.49
2017-09-22T07:19:11.902Z,10.49
2017-09-22T07:20:22.183Z,10.55
2017-09-22T07:21:32.458Z,10.58
2017-09-22T07:22:42.415Z,10.64
2017-09-22T07:23:52.692Z,10.58
2017-09-22T07:25:02.328Z,10.59
2017-09-22T07:26:12.606Z,10.69
2017-09-22T07:27:22.560Z,10.57
2017-09-22T07:28:32.511Z,10.65
2017-09-22T07:29:42.471Z,10.71
2017-09-22T07:30:52.751Z,10.71
2017-09-22T07:32:03.027Z,10.68
2017-09-22T07:33:13.310Z,10.71
2017-09-22T07:34:23.264Z,10.68
2017-09-22T07:35:33.541Z,10.58
2017-09-22T07:36:43.840Z,10.55
2017-09-22T07:37:54.118Z,10.39
2017-09-22T07:39:04.067Z,10.2
2017-09-22T07:40:13.704Z,10.24
2017-09-22T07:41:23.981Z,10.27
2017-09-22T07:42:33.939Z,10.2
2017-09-22T07:43:44.221Z,10.24
2017-09-22T07:44:53.850Z,10.27
2017-09-22T07:46:03.803Z,10.36
2017-09-22T07:47:13.762Z,10.36
2017-09-22T07:48:24.044Z,10.38
2017-09-22T07:49:34.000Z,10.38
2017-09-22T07:50:43.950Z,10.42
2017-09-22T07:51:53.939Z,10.33
2017-09-22T07:53:03.901Z,10.43
2017-09-22T07:54:13.535Z,10.53
2017-09-22T07:55:23.490Z,10.57
2017-09-22T07:56:33.771Z,10.45
2017-09-22T07:57:43.398Z,10.46
2017-09-22T07:58:56.123Z,10.48
2017-09-22T08:00:06.403Z,10.34
2017-09-22T08:01:16.678Z,10.28
2017-09-22T08:02:26.958Z,10.15
2017-09-22T08:03:36.591Z,10.15
2017-09-22T08:04:46.551Z,10.15
2017-09-22T08:05:56.507Z,10
2017-09-22T08:07:06.461Z,10.13
2017-09-22T08:08:16.091Z,9.97
2017-09-22T08:09:26.367Z,10.09
2017-09-22T08:10:36.640Z,10.05
2017-09-22T08:11:46.924Z,10.23
2017-09-22T08:12:57.199Z,10.18
2017-09-22T08:14:07.152Z,10.15
2017-09-22T08:15:17.104Z,10.31
2017-09-22T08:16:26.736Z,10.3
2017-09-22T08:17:36.363Z,10.15
2017-09-22T08:18:46.688Z,10.1
2017-09-22T08:19:56.964Z,10.18
2017-09-22T08:21:06.916Z,10.13
2017-09-22T08:22:16.546Z,10.18
2017-09-22T08:23:26.826Z,10.09
2017-09-22T08:24:36.785Z,10.18
2017-09-22T08:25:47.060Z,10.21
2017-09-22T08:26:57.341Z,10.33
2017-09-22T08:28:07.620Z,10.34
2017-09-22T08:29:16.928Z,10.33
2017-09-22T08:30:27.204Z,10.41
2017-09-22T08:31:37.163Z,10.41
2017-09-22T08:32:47.439Z,10.39
2017-09-22T08:33:57.394Z,10.43
2017-09-22T08:35:07.029Z,10.42
2017-09-22T08:36:16.983Z,10.42
2017-09-22T08:37:27.254Z,10.41
2017-09-22T08:38:37.206Z,10.41
2017-09-22T08:39:47.169Z,10.43
2017-09-22T08:40:57.449Z,10.41
2017-09-22T08:42:07.092Z,10.42
2017-09-22T08:43:17.047Z,10.38
2017-09-22T08:44:27.330Z,10.36
2017-09-22T08:45:37.287Z,10.27
2017-09-22T08:46:47.562Z,10.21
2017-09-22T08:47:57.842Z,10.25
2017-09-22T08:49:07.152Z,10.27
2017-09-22T08:50:17.110Z,10.23
2017-09-22T08:51:27.066Z,10.13
2017-09-22T08:52:37.028Z,10.2
2017-09-22T08:53:47.300Z,10.21
2017-09-22T08:54:57.590Z,10.13
2017-09-22T08:56:07.547Z,10.17
2017-09-22T08:57:17.178Z,10.1
2017-09-22T08:58:27.132Z,10.12
2017-09-22T08:59:37.095Z,10.2
2017-09-22T09:00:46.726Z,10.15
2017-09-22T09:01:56.679Z,10.3
2017-09-22T09:03:06.956Z,10.38
2017-09-22T09:04:16.913Z,10.39
2017-09-22T09:05:26.906Z,10.49
2017-09-22T09:06:37.185Z,10.64
2017-09-22T09:07:47.154Z,10.61
2017-09-22T09:08:57.433Z,10.72
2017-09-22T09:10:07.744Z,10.69
2017-09-22T09:11:18.034Z,10.69
2017-09-22T09:12:27.344Z,10.67
2017-09-22T09:13:37.306Z,10.8
2017-09-22T09:14:47.575Z,10.84
2017-09-22T09:15:57.528Z,10.79
2017-09-22T09:17:07.485Z,10.94
2017-09-22T09:18:17.122Z,11.04
2017-09-22T09:19:27.401Z,11.05
2017-09-22T09:20:37.359Z,11.1
2017-09-22T09:21:47.636Z,11.13
2017-09-22T09:22:57.913Z,11.19
2017-09-22T09:24:07.557Z,11.23
2017-09-22T09:25:17.192Z,11.23
2017-09-22T09:26:27.464Z,11.31
2017-09-22T09:27:37.741Z,11.25
2017-09-22T09:28:47.694Z,11.27
2017-09-22T09:29:57.325Z,11.3
2017-09-22T09:31:07.280Z,11.31
2017-09-22T09:32:17.226Z,11.27
2017-09-22T09:33:27.504Z,11.41
2017-09-22T09:34:37.453Z,11.4
2017-09-22T09:35:47.722Z,11.44
2017-09-22T09:36:57.031Z,11.44
2017-09-22T09:38:06.982Z,11.22
2017-09-22T09:39:16.615Z,11.07
2017-09-22T09:40:26.571Z,11.01
2017-09-22T09:41:36.535Z,11
2017-09-22T09:42:45.523Z,11.02
2017-09-22T09:43:55.484Z,11
2017-09-22T09:45:05.117Z,11.02
2017-09-22T09:46:15.393Z,11.1
2017-09-22T09:47:25.691Z,11.07
2017-09-22T09:48:35.971Z,10.97
2017-09-22T09:49:45.934Z,11
2017-09-22T09:50:55.565Z,10.89
2017-09-22T09:52:05.534Z,10.75
2017-09-22T09:53:15.487Z,10.8
2017-09-22T09:54:25.439Z,10.72
2017-09-22T09:55:35.396Z,10.76
2017-09-22T09:56:45.354Z,10.68
2017-09-22T09:57:55.308Z,10.84
2017-09-22T09:59:04.941Z,10.89
2017-09-22T10:00:15.215Z,11.02
2017-09-22T10:01:25.167Z,11.01
2017-09-22T10:02:35.128Z,11.02
2017-09-22T10:03:45.084Z,11.1
2017-09-22T10:04:55.355Z,11.1
2017-09-22T10:06:05.633Z,11.07
2017-09-22T10:07:15.909Z,11.04
2017-09-22T10:08:25.223Z,11.04
2017-09-22T10:09:35.499Z,11.02
2017-09-22T10:10:45.779Z,11.07
2017-09-22T10:11:56.062Z,11.02
2017-09-22T10:13:05.690Z,11.04
2017-09-22T10:14:15.650Z,11.02
2017-09-22T10:15:25.606Z,11
2017-09-22T10:16:35.887Z,11.01
2017-09-22T10:17:46.181Z,11
2017-09-22T10:18:56.132Z,11.1
2017-09-22T10:20:06.092Z,11.08
2017-09-22T10:21:16.371Z,11.07
2017-09-22T10:22:26.340Z,11.13
2017-09-22T10:23:36.294Z,11.23
2017-09-22T10:24:46.572Z,11.16
2017-09-22T10:25:56.526Z,11.16
2017-09-22T10:27:06.486Z,11.22
2017-09-22T10:28:16.119Z,11.26
2017-09-22T10:29:26.394Z,11.27
2017-09-22T10:30:36.359Z,11.43
2017-09-22T10:31:46.316Z,11.4
2017-09-22T10:32:56.597Z,11.56
2017-09-22T10:34:06.874Z,11.51
2017-09-22T10:35:17.192Z,11.52
2017-09-22T10:36:27.475Z,11.55
2017-09-22T10:37:37.432Z,11.6
2017-09-22T10:38:47.717Z,11.63
2017-09-22T10:39:57.692Z,11.67
2017-09-22T10:41:07.975Z,11.6
2017-09-22T10:42:18.257Z,11.62
2017-09-22T10:43:28.213Z,11.58
2017-09-22T10:44:37.847Z,11.6
2017-09-22T10:45:48.121Z,11.59
2017-09-22T10:46:58.076Z,11.83
2017-09-22T10:48:08.029Z,11.81
2017-09-22T10:49:17.996Z,11.88
2017-09-22T10:50:28.275Z,11.97
2017-09-22T10:51:38.231Z,12.15
2017-09-22T10:52:48.189Z,12.21
2017-09-22T10:53:58.470Z,12.18
2017-09-22T10:55:08.427Z,12.25
2017-09-22T10:56:18.705Z,12.29
2017-09-22T10:57:28.986Z,12.33
2017-09-22T10:58:38.947Z,12.5
2017-09-22T10:59:48.906Z,12.45
2017-09-22T11:00:58.539Z,12.5
2017-09-22T11:02:08.493Z,12.65
2017-09-22T11:03:18.450Z,12.65
2017-09-22T11:04:28.735Z,12.63
2017-09-22T11:05:38.693Z,12.8
2017-09-22T11:06:48.970Z,12.78
2017-09-22T11:07:59.266Z,12.84
2017-09-22T11:09:09.549Z,12.87
2017-09-22T11:10:19.821Z,12.9
2017-09-22T11:11:29.453Z,12.99
2017-09-22T11:12:39.727Z,12.98
2017-09-22T11:13:49.693Z,13.01
2017-09-22T11:14:59.644Z,13.03
2017-09-22T11:16:09.601Z,13.12
2017-09-22T11:17:19.234Z,13.11
2017-09-22T11:18:28.867Z,13.12
2017-09-22T11:19:38.825Z,13.16
2017-09-22T11:20:48.782Z,13.13
2017-09-22T11:21:59.064Z,13.17
2017-09-22T11:23:08.695Z,13.13
2017-09-22T11:24:18.974Z,13.17
2017-09-22T11:25:29.253Z,13.13
2017-09-22T11:26:39.215Z,13.19
2017-09-22T11:27:49.164Z,13.24
2017-09-22T11:28:58.801Z,13.19
2017-09-22T11:30:09.075Z,13.26
2017-09-22T11:31:18.707Z,13.24
2017-09-22T11:32:28.337Z,13.12
2017-09-22T11:33:38.293Z,12.83
2017-09-22T11:34:48.565Z,12.58
2017-09-22T11:35:58.838Z,12.45
2017-09-22T11:37:09.112Z,12.45
2017-09-22T11:38:18.750Z,12.51
2017-09-22T11:39:29.028Z,12.7
2017-09-22T11:40:38.979Z,12.84
2017-09-22T11:41:48.617Z,12.9
2017-09-22T11:42:58.893Z,12.83
2017-09-22T11:44:08.847Z,12.9
2017-09-22T11:45:19.130Z,13.05
2017-09-22T11:46:29.093Z,13.17
2017-09-22T11:47:39.368Z,13.27
2017-09-22T11:48:49.694Z,13.19
2017-09-22T11:49:59.973Z,13.21
2017-09-22T11:51:09.936Z,13.26
2017-09-22T11:52:19.894Z,13.37
2017-09-22T11:53:29.524Z,13.24
2017-09-22T11:54:39.481Z,13.42
2017-09-22T11:55:49.433Z,13.54
2017-09-22T11:56:59.385Z,13.46
2017-09-22T11:58:09.353Z,13.5
2017-09-22T11:59:19.633Z,13.62
2017-09-22T12:00:29.909Z,13.57
2017-09-22T12:01:40.184Z,13.65
2017-09-22T12:02:50.466Z,13.73
2017-09-22T12:04:00.743Z,13.75
2017-09-22T12:05:10.379Z,13.82
2017-09-22T12:06:19.696Z,13.8
2017-09-22T12:07:29.656Z,13.83
2017-09-22T12:08:39.287Z,13.8
2017-09-22T12:09:49.244Z,13.82
2017-09-22T12:10:59.529Z,13.87
2017-09-22T12:12:09.166Z,13.5
2017-09-22T12:13:19.445Z,13.33
2017-09-22T12:14:29.394Z,13.12
2017-09-22T12:15:39.366Z,12.88
2017-09-22T12:16:49.643Z,12.88
2017-09-22T12:17:59.599Z,12.81
2017-09-22T12:19:09.243Z,12.87
2017-09-22T12:20:19.527Z,12.81
2017-09-22T12:21:29.809Z,12.66
2017-09-22T12:22:39.768Z,12.62
2017-09-22T12:23:49.725Z,12.37
2017-09-22T12:25:00.014Z,12.36
2017-09-22T12:26:09.649Z,12.36
2017-09-22T12:27:19.604Z,12.4
2017-09-22T12:28:29.561Z,12.3
2017-09-22T12:29:39.849Z,12.36
2017-09-22T12:30:49.804Z,12.23
2017-09-22T12:31:59.769Z,12.17
2017-09-22T12:33:10.049Z,12.03
2017-09-22T12:34:20.011Z,12
2017-09-22T12:35:29.966Z,11.99
2017-09-22T12:36:40.251Z,11.97
2017-09-22T12:37:50.536Z,11.97
2017-09-22T12:39:00.491Z,12.03
2017-09-22T12:40:10.461Z,12.12
2017-09-22T12:41:20.740Z,12.18
2017-09-22T12:42:31.012Z,12.11
2017-09-22T12:43:41.296Z,12.05
2017-09-22T12:44:51.577Z,11.93
2017-09-22T12:46:01.863Z,11.95
2017-09-22T12:47:11.501Z,11.93
2017-09-22T12:48:21.789Z,11.86
2017-09-22T12:49:31.425Z,11.77
2017-09-22T12:50:41.378Z,11.76
2017-09-22T12:51:51.659Z,11.78
2017-09-22T12:53:01.623Z,11.59
2017-09-22T12:54:11.591Z,11.62
2017-09-22T12:55:21.549Z,11.62
2017-09-22T12:56:31.829Z,11.62
2017-09-22T12:57:42.112Z,11.59
2017-09-22T12:58:52.081Z,11.77
2017-09-22T13:00:02.047Z,11.68
2017-09-22T13:01:12.325Z,11.63
2017-09-22T13:02:22.298Z,11.63
2017-09-22T13:03:32.252Z,11.7
2017-09-22T13:04:42.529Z,11.89
2017-09-22T13:05:52.509Z,11.81
2017-09-22T13:07:02.791Z,11.91
2017-09-22T13:08:12.741Z,11.88
2017-09-22T13:09:22.374Z,12
2017-09-22T13:10:32.660Z,12.02
2017-09-22T13:11:42.941Z,11.99
2017-09-22T13:12:52.902Z,11.97
2017-09-22T13:14:03.183Z,11.97
2017-09-22T13:15:12.882Z,11.97
2017-09-22T13:16:23.196Z,12.12
2017-09-22T13:17:32.828Z,12.02
2017-09-22T13:18:43.106Z,12.14
2017-09-22T13:19:52.754Z,12.12
2017-09-22T13:21:02.386Z,12.28
2017-09-22T13:22:12.660Z,12.36
2017-09-22T13:23:22.618Z,12.39
2017-09-22T13:24:32.901Z,12.43
2017-09-22T13:25:42.563Z,12.44
2017-09-22T13:26:52.520Z,12.47
2017-09-22T13:28:02.472Z,12.58
2017-09-22T13:29:11.784Z,12.7
2017-09-22T13:30:21.757Z,12.68
2017-09-22T13:31:32.036Z,12.63
2017-09-22T13:32:42.316Z,12.51
2017-09-22T13:33:51.945Z,12.51
2017-09-22T13:35:02.228Z,12.51
2017-09-22T13:36:12.505Z,12.53
2017-09-22T13:37:21.816Z,12.55
2017-09-22T13:38:31.778Z,12.51
2017-09-22T13:39:42.049Z,12.62
2017-09-22T13:40:52.010Z,12.7
2017-09-22T13:42:02.291Z,12.7
2017-09-22T13:43:12.575Z,12.68
2017-09-22T13:44:22.894Z,12.7
2017-09-22T13:45:33.173Z,12.76
2017-09-22T13:46:42.826Z,12.8
2017-09-22T13:47:52.777Z,12.87
2017-09-22T13:49:02.735Z,12.93
2017-09-22T13:50:13.022Z,12.91
2017-09-22T13:51:23.306Z,13.01
2017-09-22T13:52:33.262Z,13.01
2017-09-22T13:53:43.220Z,12.99
2017-09-22T13:54:53.504Z,13.05
2017-09-22T13:56:03.462Z,13.09
2017-09-22T13:57:13.095Z,13.08
2017-09-22T13:58:23.395Z,13.06
2017-09-22T13:59:33.030Z,13.19
2017-09-22T14:00:43.312Z,13.03
2017-09-22T14:01:53.276Z,13.03
2017-09-22T14:03:03.242Z,12.86
2017-09-22T14:04:13.202Z,12.72
2017-09-22T14:05:23.487Z,12.75
2017-09-22T14:06:33.767Z,12.62
2017-09-22T14:07:44.048Z,12.53
2017-09-22T14:08:54.015Z,12.54
2017-09-22T14:10:03.969Z,12.43
2017-09-22T14:11:13.925Z,12.36
2017-09-22T14:12:23.884Z,12.45
2017-09-22T14:13:34.162Z,12.35
2017-09-22T14:14:44.446Z,12.35
2017-09-22T14:15:54.727Z,12.35
2017-09-22T14:17:05.007Z,12.5
2017-09-22T14:18:14.642Z,12.44
2017-09-22T14:19:24.923Z,12.44
2017-09-22T14:20:35.202Z,12.43
2017-09-22T14:21:44.842Z,12.5
2017-09-22T14:22:55.123Z,12.4
2017-09-22T14:24:05.083Z,12.3
2017-09-22T14:25:14.717Z,12.3
2017-09-22T14:26:25.003Z,12.29
2017-09-22T14:27:34.637Z,12.25
2017-09-22T14:28:44.269Z,12.28
2017-09-22T14:29:54.227Z,12.25
2017-09-22T14:31:04.505Z,12.25
2017-09-22T14:32:14.464Z,12.18
2017-09-22T14:33:23.776Z,12.14
2017-09-22T14:34:33.769Z,12.11
2017-09-22T14:35:43.367Z,12.03
2017-09-22T14:36:53.649Z,12.03
2017-09-22T14:38:03.605Z,12
2017-09-22T14:39:13.558Z,11.93
2017-09-22T14:40:23.835Z,11.85
2017-09-22T14:41:33.789Z,11.86
2017-09-22T14:42:44.068Z,11.88
2017-09-22T14:43:54.354Z,11.89
2017-09-22T14:45:04.629Z,11.88
2017-09-22T14:46:14.587Z,11.95
2017-09-22T14:47:24.585Z,11.95
2017-09-22T14:48:34.227Z,11.93
2017-09-22T14:49:44.186Z,11.97
2017-09-22T14:50:54.474Z,12.05
2017-09-22T14:52:04.752Z,11.96
2017-09-22T14:53:14.065Z,12.08
2017-09-22T14:54:24.344Z,12.11
2017-09-22T14:55:34.619Z,12.11
2017-09-22T14:56:44.894Z,12.05
2017-09-22T14:57:55.176Z,12.14
2017-09-22T14:59:05.386Z,12.15
2017-09-22T15:00:15.668Z,12.2
2017-09-22T15:01:25.626Z,12.21
2017-09-22T15:02:35.588Z,12.29
2017-09-22T15:03:45.544Z,12.23
2017-09-22T15:04:55.506Z,12.15
2017-09-22T15:06:05.785Z,12.25
2017-09-22T15:07:16.062Z,12.26
2017-09-22T15:08:26.331Z,12.36
2017-09-22T15:09:35.963Z,12.29
2017-09-22T15:10:46.341Z,12.39
2017-09-22T15:11:56.649Z,12.39
2017-09-22T15:13:06.931Z,12.3
2017-09-22T15:14:17.208Z,12.36
2017-09-22T15:15:27.170Z,12.35
2017-09-22T15:16:37.452Z,12.33
2017-09-22T15:17:47.402Z,12.33
2017-09-22T15:18:57.359Z,12.4